Time;durP1;ratioP1;P1;durP2;ratioP2;P2;SDS_P1;SDS_P2;PMS_P1;PMS_P2;Temp;Humidity;BMP_temperature;BMP_pressure;BME280_temperature;BME280_humidity;BME280_pressure;Samples;Min_cycle;Max_cycle;Signal;HPM_P1;HPM_P2
2022/10/29 00:00:57;;;;;;;4.80;4.40;;;23.60;69.20;;;;;;5111079;28;20545;-76
2022/10/29 00:03:26;;;;;;;3.93;3.70;;;23.70;68.90;;;;;;5092431;28;20459;-76
2022/10/29 00:05:58;;;;;;;5.47;4.50;;;23.80;68.70;;;;;;5103372;28;20874;-76
2022/10/29 00:08:28;;;;;;;5.10;4.60;;;23.80;68.40;;;;;;5103000;28;20450;-77
2022/10/29 00:11:04;;;;;;;10.00;4.80;;;23.90;67.20;;;;;;5093238;28;20450;-77
2022/10/29 00:13:34;;;;;;;4.77;4.33;;;23.90;67.80;;;;;;5094569;28;20701;-76
2022/10/29 00:16:05;;;;;;;4.83;4.33;;;23.90;67.90;;;;;;5107159;28;20964;-76
2022/10/29 00:18:33;;;;;;;5.13;4.20;;;23.80;67.10;;;;;;5098349;28;20451;-76
2022/10/29 00:21:03;;;;;;;6.07;4.37;;;23.80;68.10;;;;;;5092198;28;20437;-76
2022/10/29 00:23:31;;;;;;;4.70;4.13;;;23.80;68.00;;;;;;5092939;28;20528;-76
2022/10/29 00:26:01;;;;;;;4.93;4.37;;;23.80;68.10;;;;;;5092827;28;20452;-76
2022/10/29 00:28:29;;;;;;;4.80;4.30;;;23.80;67.50;;;;;;5104180;28;20473;-76
2022/10/29 00:31:02;;;;;;;5.70;4.30;;;23.80;67.90;;;;;;5096188;28;20577;-76
2022/10/29 00:33:31;;;;;;;5.30;4.80;;;23.80;67.90;;;;;;5105356;28;20460;-77
2022/10/29 00:36:01;;;;;;;6.00;5.00;;;23.80;68.00;;;;;;5098878;28;20459;-76
2022/10/29 00:38:31;;;;;;;4.20;3.77;;;23.90;67.90;;;;;;5107229;28;20456;-76
2022/10/29 00:41:00;;;;;;;6.33;3.90;;;23.90;67.70;;;;;;5105278;28;20451;-77
2022/10/29 00:43:28;;;;;;;4.70;4.30;;;23.90;67.60;;;;;;5112868;28;20439;-77
2022/10/29 00:46:01;;;;;;;7.43;4.57;;;24.00;67.40;;;;;;5112645;28;20976;-76
2022/10/29 00:48:32;;;;;;;6.17;4.67;;;24.00;67.30;;;;;;5106671;28;20475;-77
2022/10/29 00:51:01;;;;;;;4.97;4.57;;;24.00;67.00;;;;;;5100599;28;20484;-76
2022/10/29 00:53:37;;;;;;;6.40;5.10;;;24.00;67.00;;;;;;5112514;28;20460;-77
2022/10/29 00:56:06;;;;;;;5.07;4.67;;;24.00;67.10;;;;;;5112725;28;20432;-76
2022/10/29 00:58:35;;;;;;;6.33;5.10;;;24.00;66.60;;;;;;5099919;28;20460;-76
2022/10/29 01:01:05;;;;;;;5.30;4.57;;;24.00;66.70;;;;;;5092262;28;20521;-77
2022/10/29 01:03:34;;;;;;;10.03;5.73;;;24.00;67.00;;;;;;5095111;28;20978;-77
2022/10/29 01:06:03;;;;;;;5.40;4.63;;;24.00;66.20;;;;;;5112547;28;21031;-77
2022/10/29 01:08:31;;;;;;;6.80;5.43;;;23.90;66.40;;;;;;5107028;28;20469;-77
2022/10/29 01:11:07;;;;;;;5.07;3.73;;;23.70;66.10;;;;;;5092053;28;20471;-77
2022/10/29 01:13:52;;;;;;;4.20;3.83;;;23.70;67.50;;;;;;5092526;28;20474;-77
2022/10/29 01:16:29;;;;;;;4.77;4.17;;;23.60;67.80;;;;;;5091942;28;20845;-77
2022/10/29 01:19:12;;;;;;;5.30;4.80;;;23.70;67.30;;;;;;5097295;28;20450;-77
2022/10/29 01:21:44;;;;;;;5.93;5.10;;;23.70;66.80;;;;;;5106097;28;20465;-76
2022/10/29 01:25:01;;;;;;;6.40;4.47;;;23.70;67.10;;;;;;5112279;28;20434;-76
2022/10/29 01:27:55;;;;;;;5.80;5.27;;;23.60;66.10;;;;;;5100279;28;20456;-76
2022/10/29 01:30:48;;;;;;;7.00;5.00;;;23.30;65.60;;;;;;5105038;28;20481;-78
2022/10/29 01:33:23;;;;;;;5.40;4.70;;;23.00;68.40;;;;;;5079452;28;20458;-76
2022/10/29 01:35:58;;;;;;;7.07;6.30;;;23.00;67.40;;;;;;5102389;28;20446;-77
2022/10/29 01:38:34;;;;;;;4.13;3.83;;;22.70;67.00;;;;;;5091683;28;20777;-78
2022/10/29 01:41:09;;;;;;;6.03;5.53;;;22.50;69.60;;;;;;5092462;28;20430;-76
2022/10/29 01:43:41;;;;;;;5.53;5.13;;;22.40;68.00;;;;;;5096397;28;20518;-76
2022/10/29 01:46:16;;;;;;;6.63;5.67;;;22.20;68.40;;;;;;5092458;28;20490;-76
2022/10/29 01:48:50;;;;;;;7.00;5.60;;;22.20;70.10;;;;;;5092526;28;20441;-76
2022/10/29 01:51:21;;;;;;;7.60;5.47;;;22.10;68.70;;;;;;5091495;28;20890;-76
2022/10/29 01:53:50;;;;;;;4.73;4.33;;;21.80;69.30;;;;;;5091066;28;20877;-77
2022/10/29 01:56:19;;;;;;;4.83;4.43;;;21.80;71.90;;;;;;5110720;28;20457;-77
2022/10/29 01:58:52;;;;;;;6.40;5.80;;;21.90;70.80;;;;;;5108261;28;20456;-76
2022/10/29 02:01:35;;;;;;;4.70;4.30;;;22.00;69.20;;;;;;5108655;28;20461;-77
2022/10/29 02:04:17;;;;;;;5.70;4.30;;;22.00;70.50;;;;;;5092758;28;20433;-77
2022/10/29 02:07:06;;;;;;;5.63;5.03;;;21.90;70.00;;;;;;5094935;28;20551;-77
2022/10/29 02:09:40;;;;;;;5.13;4.73;;;22.10;71.00;;;;;;5097422;28;20543;-77
2022/10/29 02:12:17;;;;;;;7.93;5.10;;;22.00;69.00;;;;;;5112562;28;20512;-76
2022/10/29 02:14:50;;;;;;;5.77;5.27;;;21.60;69.50;;;;;;5112445;28;20497;-76
2022/10/29 02:17:18;;;;;;;8.20;5.40;;;21.50;70.10;;;;;;5115624;27;20447;-76
2022/10/29 02:19:48;;;;;;;7.23;5.10;;;21.50;70.50;;;;;;5094879;28;20934;-76
2022/10/29 02:22:16;;;;;;;5.70;5.00;;;21.40;72.20;;;;;;5097332;28;20449;-76
2022/10/29 02:24:44;;;;;;;4.33;3.93;;;21.60;72.10;;;;;;5105279;28;20447;-76
2022/10/29 02:27:12;;;;;;;5.43;4.50;;;21.80;71.30;;;;;;5109134;28;20460;-77
2022/10/29 02:29:40;;;;;;;5.07;4.53;;;22.00;71.40;;;;;;5103318;28;20468;-78
2022/10/29 02:32:08;;;;;;;4.10;3.70;;;22.20;71.00;;;;;;5107970;28;20460;-76
2022/10/29 02:34:36;;;;;;;5.80;4.87;;;22.40;70.30;;;;;;5102087;28;20454;-76
2022/10/29 02:37:06;;;;;;;6.07;5.00;;;22.50;69.70;;;;;;5114792;28;20965;-77
2022/10/29 02:39:34;;;;;;;4.07;3.67;;;22.60;68.00;;;;;;5094808;28;20897;-77
2022/10/29 02:42:02;;;;;;;5.07;4.57;;;22.60;69.10;;;;;;5094916;28;20428;-76
2022/10/29 02:44:30;;;;;;;5.60;5.03;;;22.70;69.30;;;;;;5097917;28;20560;-76
2022/10/29 02:46:59;;;;;;;9.63;5.23;;;22.80;68.90;;;;;;5094945;28;20919;-76
2022/10/29 02:49:27;;;;;;;6.87;4.60;;;22.80;67.00;;;;;;5093244;28;20457;-76
2022/10/29 02:51:55;;;;;;;5.97;5.10;;;22.70;67.70;;;;;;5096836;28;20477;-76
2022/10/29 02:54:24;;;;;;;8.80;5.33;;;22.70;68.90;;;;;;5098859;28;20897;-76
2022/10/29 02:56:52;;;;;;;4.50;4.17;;;22.70;67.80;;;;;;5095154;28;20450;-76
2022/10/29 02:59:21;;;;;;;5.40;4.30;;;22.70;68.80;;;;;;5094462;28;20455;-76
2022/10/29 03:01:49;;;;;;;5.83;5.33;;;22.80;69.10;;;;;;5094165;28;20479;-76
2022/10/29 03:04:17;;;;;;;5.10;4.70;;;22.90;68.80;;;;;;5097694;28;20465;-77
2022/10/29 03:06:45;;;;;;;6.63;5.43;;;22.90;68.70;;;;;;5104821;28;20471;-76
2022/10/29 03:09:13;;;;;;;5.17;4.33;;;23.00;68.30;;;;;;5106542;28;20535;-76
2022/10/29 03:11:43;;;;;;;4.90;4.50;;;23.10;68.30;;;;;;5103108;28;20481;-76
2022/10/29 03:14:11;;;;;;;4.97;4.47;;;23.20;67.90;;;;;;5103480;28;20504;-77
2022/10/29 03:16:39;;;;;;;4.70;3.83;;;23.20;67.90;;;;;;5094345;28;20453;-76
2022/10/29 03:19:07;;;;;;;7.60;5.70;;;23.30;67.70;;;;;;5093998;28;20461;-76
2022/10/29 03:21:36;;;;;;;6.77;4.90;;;23.40;67.40;;;;;;5093652;28;20816;-76
2022/10/29 03:24:05;;;;;;;6.40;4.53;;;23.40;67.10;;;;;;5106960;28;20449;-76
2022/10/29 03:26:33;;;;;;;5.50;4.80;;;23.50;67.20;;;;;;5113211;28;20540;-76
2022/10/29 03:29:03;;;;;;;5.50;4.40;;;23.50;66.90;;;;;;5093914;28;20445;-76
2022/10/29 03:31:33;;;;;;;5.63;4.47;;;23.50;66.60;;;;;;5108796;28;21022;-77
2022/10/29 03:34:02;;;;;;;6.03;4.70;;;23.50;66.50;;;;;;5110116;28;20471;-76
2022/10/29 03:36:30;;;;;;;5.10;4.60;;;23.50;67.00;;;;;;5093345;28;20432;-76
2022/10/29 03:38:58;;;;;;;5.40;4.30;;;23.40;65.20;;;;;;5094022;28;20440;-76
2022/10/29 03:41:26;;;;;;;8.10;5.80;;;23.30;66.50;;;;;;5093536;28;20803;-76
2022/10/29 03:43:54;;;;;;;4.80;4.40;;;23.10;66.80;;;;;;5093191;28;20796;-76
2022/10/29 03:46:29;;;;;;;4.33;4.03;;;23.10;67.20;;;;;;5093814;28;20792;-76
2022/10/29 03:48:57;;;;;;;4.80;4.37;;;23.10;67.40;;;;;;5094132;28;20475;-76
2022/10/29 03:51:25;;;;;;;5.03;4.73;;;23.20;67.30;;;;;;5093486;28;20467;-76
2022/10/29 03:53:53;;;;;;;8.70;4.30;;;23.10;66.80;;;;;;5093152;28;20790;-76
2022/10/29 03:56:21;;;;;;;5.50;5.10;;;23.10;67.60;;;;;;5093272;28;20458;-76
2022/10/29 03:58:49;;;;;;;4.57;4.10;;;23.20;67.20;;;;;;5093143;28;20951;-76
2022/10/29 04:01:18;;;;;;;5.50;4.10;;;23.20;67.40;;;;;;5097481;28;20454;-76
2022/10/29 04:03:47;;;;;;;6.00;4.07;;;23.20;67.30;;;;;;5102359;28;20449;-76
2022/10/29 04:06:17;;;;;;;5.30;4.03;;;23.30;67.30;;;;;;5113542;28;20819;-77
2022/10/29 04:08:45;;;;;;;5.37;4.63;;;23.30;67.30;;;;;;5093103;28;20447;-77
2022/10/29 04:11:14;;;;;;;5.00;4.50;;;23.30;67.20;;;;;;5093125;28;20469;-77
2022/10/29 04:13:43;;;;;;;6.13;5.60;;;23.40;67.10;;;;;;5101477;28;20542;-78
2022/10/29 04:16:11;;;;;;;6.73;4.73;;;23.40;67.10;;;;;;5094487;28;20452;-78
2022/10/29 04:18:39;;;;;;;5.17;4.20;;;23.40;67.00;;;;;;5093145;28;20467;-79
2022/10/29 04:21:09;;;;;;;4.93;4.53;;;23.50;66.80;;;;;;5096374;28;20530;-79
2022/10/29 04:23:57;;;;;;;4.97;4.37;;;23.50;66.80;;;;;;5093143;28;20476;-79
2022/10/29 04:26:45;;;;;;;4.90;4.13;;;23.50;66.70;;;;;;5099406;28;20465;-79
2022/10/29 04:29:33;;;;;;;5.50;5.00;;;23.50;65.70;;;;;;5097482;28;20465;-79
2022/10/29 04:32:02;;;;;;;5.10;4.60;;;23.50;66.60;;;;;;5101278;28;20566;-78
2022/10/29 04:34:30;;;;;;;4.77;4.13;;;23.50;66.10;;;;;;5106300;28;20940;-78
2022/10/29 04:36:59;;;;;;;6.17;4.80;;;23.50;65.90;;;;;;5097988;28;20454;-78
2022/10/29 04:39:27;;;;;;;6.00;5.13;;;23.50;66.50;;;;;;5105130;28;20447;-77
2022/10/29 04:41:55;;;;;;;5.07;4.67;;;23.50;66.00;;;;;;5099377;28;20985;-77
2022/10/29 04:44:23;;;;;;;4.57;4.17;;;23.40;66.10;;;;;;5096052;28;20481;-77
2022/10/29 04:46:52;;;;;;;6.60;4.63;;;23.40;66.40;;;;;;5107175;28;20469;-77
2022/10/29 04:49:20;;;;;;;4.60;4.20;;;23.30;66.50;;;;;;5108102;28;20545;-76
2022/10/29 04:51:48;;;;;;;4.40;4.00;;;23.30;66.40;;;;;;5113373;28;20477;-77
2022/10/29 04:54:17;;;;;;;6.43;4.33;;;23.30;66.90;;;;;;5111963;28;20507;-76
2022/10/29 04:56:46;;;;;;;6.23;4.63;;;23.30;66.30;;;;;;5097966;28;20451;-77
2022/10/29 04:59:14;;;;;;;6.20;5.37;;;23.20;66.40;;;;;;5100323;28;20459;-77
2022/10/29 05:01:42;;;;;;;6.67;6.00;;;23.10;66.60;;;;;;5095098;28;20462;-77
2022/10/29 05:04:10;;;;;;;5.13;4.03;;;23.10;66.50;;;;;;5096972;28;20447;-77
2022/10/29 05:06:38;;;;;;;5.40;4.90;;;23.00;67.60;;;;;;5096854;28;20543;-77
2022/10/29 05:09:06;;;;;;;5.77;4.23;;;23.10;67.80;;;;;;5100781;28;20457;-77
2022/10/29 05:11:36;;;;;;;4.60;4.10;;;23.10;67.50;;;;;;5097954;28;20508;-77
2022/10/29 05:14:04;;;;;;;5.50;4.87;;;23.20;67.30;;;;;;5097888;28;20836;-77
2022/10/29 05:16:32;;;;;;;6.97;5.10;;;23.20;67.30;;;;;;5092357;28;20442;-77
2022/10/29 05:19:01;;;;;;;5.73;4.83;;;23.30;67.30;;;;;;5100547;28;20475;-77
2022/10/29 05:21:29;;;;;;;4.50;4.10;;;23.30;67.10;;;;;;5107383;28;20964;-77
2022/10/29 05:23:58;;;;;;;4.90;4.40;;;23.40;67.00;;;;;;5112464;28;20445;-77
2022/10/29 05:26:26;;;;;;;5.07;4.57;;;23.40;66.90;;;;;;5112344;28;20419;-77
2022/10/29 05:28:55;;;;;;;4.90;4.47;;;23.50;66.80;;;;;;5092331;28;20437;-77
2022/10/29 05:31:24;;;;;;;4.00;3.70;;;23.50;66.60;;;;;;5104046;28;20963;-77
2022/10/29 05:33:52;;;;;;;5.50;4.67;;;23.50;66.50;;;;;;5113196;28;20551;-77
2022/10/29 05:36:23;;;;;;;8.47;4.50;;;23.60;66.40;;;;;;5106735;28;20467;-77
2022/10/29 05:38:51;;;;;;;5.40;5.00;;;23.60;66.20;;;;;;5095276;28;20457;-77
2022/10/29 05:41:19;;;;;;;5.20;4.70;;;23.60;66.10;;;;;;5104939;28;20563;-77
2022/10/29 05:43:49;;;;;;;4.53;4.23;;;23.60;66.10;;;;;;5098822;28;20918;-77
2022/10/29 05:46:18;;;;;;;4.43;4.07;;;23.70;65.60;;;;;;5102921;28;21017;-77
2022/10/29 05:48:46;;;;;;;4.17;3.80;;;23.70;65.40;;;;;;5103472;28;20441;-77
2022/10/29 05:51:14;;;;;;;4.67;4.37;;;23.60;65.90;;;;;;5103087;28;20537;-78
2022/10/29 05:53:43;;;;;;;5.83;4.77;;;23.60;66.10;;;;;;5099419;28;20464;-77
2022/10/29 05:56:11;;;;;;;4.57;4.27;;;23.60;66.10;;;;;;5110751;28;20456;-77
2022/10/29 05:58:39;;;;;;;4.97;4.50;;;23.60;66.00;;;;;;5110065;28;20451;-77
2022/10/29 06:01:08;;;;;;;4.70;4.23;;;23.60;66.00;;;;;;5098854;28;20449;-78
2022/10/29 06:03:38;;;;;;;4.40;4.10;;;23.60;65.90;;;;;;5099505;28;20466;-77
2022/10/29 06:06:07;;;;;;;4.50;4.20;;;23.60;65.90;;;;;;5094996;28;20472;-77
2022/10/29 06:08:35;;;;;;;6.70;4.37;;;23.70;65.80;;;;;;5105234;28;20463;-77
2022/10/29 06:11:04;;;;;;;7.00;4.97;;;23.70;65.80;;;;;;5102167;28;20468;-77
2022/10/29 06:13:32;;;;;;;4.07;3.77;;;23.70;65.70;;;;;;5100504;28;20591;-77
2022/10/29 06:16:01;;;;;;;5.40;4.27;;;23.70;65.70;;;;;;5097176;28;21016;-78
2022/10/29 06:18:29;;;;;;;5.33;4.67;;;23.70;65.60;;;;;;5111706;28;20939;-77
2022/10/29 06:21:00;;;;;;;4.53;4.23;;;23.70;65.40;;;;;;5102762;28;20443;-77
2022/10/29 06:23:28;;;;;;;4.70;4.17;;;23.70;65.50;;;;;;5100516;28;20456;-78
2022/10/29 06:25:59;;;;;;;5.13;4.17;;;23.70;65.40;;;;;;5099052;28;20446;-78
2022/10/29 06:28:27;;;;;;;4.33;4.03;;;23.70;65.70;;;;;;5101917;28;20461;-78
2022/10/29 06:31:02;;;;;;;4.73;4.27;;;23.70;65.70;;;;;;5094197;28;20456;-77
2022/10/29 06:33:30;;;;;;;4.63;4.20;;;23.70;65.80;;;;;;5099522;28;20470;-78
2022/10/29 06:36:01;;;;;;;5.87;4.60;;;23.70;65.50;;;;;;5107563;28;20868;-78
2022/10/29 06:38:29;;;;;;;6.07;4.87;;;23.60;65.60;;;;;;5103533;28;20505;-77
2022/10/29 06:40:57;;;;;;;4.97;4.57;;;23.60;65.40;;;;;;5109452;28;20442;-78
2022/10/29 06:43:25;;;;;;;7.27;5.40;;;23.50;65.30;;;;;;5105720;28;20455;-77
2022/10/29 06:45:53;;;;;;;4.67;4.17;;;23.30;65.20;;;;;;5103058;28;20494;-79
2022/10/29 06:48:21;;;;;;;5.07;4.67;;;23.10;66.00;;;;;;5106565;28;20448;-78
2022/10/29 06:50:50;;;;;;;5.43;4.87;;;23.10;66.90;;;;;;5099186;28;20454;-77
2022/10/29 06:53:20;;;;;;;5.87;4.53;;;23.00;65.90;;;;;;5103537;28;20827;-77
2022/10/29 06:55:48;;;;;;;4.97;4.50;;;22.90;66.60;;;;;;5103632;28;20808;-77
2022/10/29 06:58:18;;;;;;;4.33;3.93;;;22.90;67.10;;;;;;5108434;28;20533;-77
2022/10/29 07:00:47;;;;;;;4.07;3.77;;;22.90;67.10;;;;;;5107387;28;20450;-78
2022/10/29 07:03:17;;;;;;;3.97;3.67;;;23.00;67.10;;;;;;5100771;28;20445;-78
2022/10/29 07:05:45;;;;;;;4.10;3.70;;;23.00;67.10;;;;;;5101006;28;20467;-78
2022/10/29 07:08:14;;;;;;;6.07;3.43;;;23.10;67.10;;;;;;5103836;28;20461;-77
2022/10/29 07:10:43;;;;;;;5.90;4.40;;;23.20;66.60;;;;;;5099449;28;20931;-78
2022/10/29 07:13:11;;;;;;;8.47;4.83;;;23.10;66.30;;;;;;5104173;28;20497;-77
2022/10/29 07:15:39;;;;;;;6.47;5.70;;;23.10;65.70;;;;;;5100461;28;20450;-76
2022/10/29 07:18:09;;;;;;;4.80;4.30;;;22.80;66.60;;;;;;5101404;28;20458;-78
2022/10/29 07:20:39;;;;;;;5.50;4.90;;;22.60;67.00;;;;;;5098362;28;20465;-74
2022/10/29 07:23:07;;;;;;;8.23;4.57;;;22.40;68.20;;;;;;5096139;28;20456;-74
2022/10/29 07:25:37;;;;;;;5.83;3.90;;;22.40;69.40;;;;;;5099474;28;20462;-74
2022/10/29 07:28:08;;;;;;;9.27;5.63;;;22.60;69.40;;;;;;5098675;28;20450;-75
2022/10/29 07:30:37;;;;;;;5.87;4.40;;;22.80;69.00;;;;;;5096747;28;20460;-73
2022/10/29 07:33:05;;;;;;;5.33;4.80;;;22.90;68.50;;;;;;5097995;28;20487;-75
2022/10/29 07:35:34;;;;;;;7.30;4.73;;;23.00;68.10;;;;;;5092612;28;21793;-75
2022/10/29 07:38:03;;;;;;;7.90;4.20;;;23.10;67.50;;;;;;5096609;28;20454;-72
2022/10/29 07:40:38;;;;;;;5.13;4.10;;;23.20;67.10;;;;;;5101875;28;20453;-76
2022/10/29 07:43:08;;;;;;;6.53;4.50;;;23.40;66.80;;;;;;5101596;28;20466;-73
2022/10/29 07:45:37;;;;;;;13.43;4.07;;;23.30;66.50;;;;;;5099659;28;20583;-76
2022/10/29 07:48:07;;;;;;;5.53;4.93;;;23.20;66.70;;;;;;5104373;28;20554;-76
2022/10/29 07:50:36;;;;;;;9.53;5.40;;;23.30;67.60;;;;;;5104696;28;20446;-76
2022/10/29 07:53:05;;;;;;;7.77;4.57;;;23.20;67.00;;;;;;5105874;28;20473;-78
2022/10/29 07:55:33;;;;;;;4.47;4.07;;;23.10;67.30;;;;;;5097283;28;20455;-77
2022/10/29 07:58:04;;;;;;;11.87;4.73;;;23.10;67.30;;;;;;5096119;28;20554;-78
2022/10/29 08:00:36;;;;;;;4.67;4.27;;;23.00;67.30;;;;;;5098409;28;20862;-79
2022/10/29 08:03:08;;;;;;;6.03;4.47;;;22.90;67.90;;;;;;5111186;28;20486;-80
2022/10/29 08:05:36;;;;;;;8.23;4.43;;;22.90;67.40;;;;;;5095777;28;20454;-82
2022/10/29 08:08:05;;;;;;;8.37;5.10;;;22.80;68.40;;;;;;5100091;28;20446;-78
2022/10/29 08:10:35;;;;;;;7.33;5.50;;;22.80;68.30;;;;;;5097286;28;20457;-73
2022/10/29 08:13:05;;;;;;;10.60;6.70;;;22.70;67.80;;;;;;5097885;28;20492;-74
2022/10/29 08:15:35;;;;;;;6.97;5.60;;;22.40;68.70;;;;;;5099871;28;20441;-74
2022/10/29 08:18:09;;;;;;;8.60;5.87;;;22.20;69.80;;;;;;5102304;28;20462;-72
2022/10/29 08:20:37;;;;;;;11.50;6.20;;;22.20;70.00;;;;;;5105730;28;20835;-73
2022/10/29 08:23:05;;;;;;;10.33;5.80;;;22.10;70.30;;;;;;5092662;28;20453;-69
2022/10/29 08:25:33;;;;;;;8.60;6.30;;;22.00;69.90;;;;;;5091508;28;20555;-76
2022/10/29 08:28:03;;;;;;;10.23;6.07;;;21.70;70.50;;;;;;5102964;28;20550;-76
2022/10/29 08:30:32;;;;;;;12.40;6.40;;;21.50;71.70;;;;;;5094329;28;20463;-76
2022/10/29 08:33:02;;;;;;;10.37;5.70;;;21.30;72.30;;;;;;5103583;28;20444;-74
2022/10/29 08:35:30;;;;;;;10.93;6.03;;;21.30;72.80;;;;;;5099502;28;20452;-76
2022/10/29 08:37:58;;;;;;;6.00;5.40;;;21.20;73.20;;;;;;5094110;28;20465;-74
2022/10/29 08:40:38;;;;;;;9.07;4.50;;;21.20;72.90;;;;;;5096281;28;20788;-74
2022/10/29 08:43:36;;;;;;;6.53;4.47;;;21.40;73.80;;;;;;5097163;28;20474;-72
2022/10/29 08:46:04;;;;;;;6.03;4.37;;;21.60;73.00;;;;;;5098058;28;20476;-75
2022/10/29 08:48:45;;;;;;;9.33;5.20;;;21.90;72.10;;;;;;5094522;28;20448;-76
2022/10/29 08:51:19;;;;;;;6.23;5.57;;;22.20;71.40;;;;;;5098917;28;20482;-74
2022/10/29 08:53:49;;;;;;;13.83;5.90;;;22.40;70.60;;;;;;5095064;28;20468;-73
2022/10/29 08:56:40;;;;;;;6.07;5.47;;;22.30;70.10;;;;;;5092603;28;20458;-73
2022/10/29 08:59:13;;;;;;;6.33;5.73;;;22.00;70.70;;;;;;5088071;28;20545;-70
2022/10/29 09:01:42;;;;;;;8.67;5.60;;;21.90;70.60;;;;;;5100986;28;20465;-70
2022/10/29 09:04:24;;;;;;;6.50;5.90;;;21.60;70.70;;;;;;5098860;28;20537;-71
2022/10/29 09:07:09;;;;;;;6.90;6.17;;;21.40;72.50;;;;;;5101866;28;20457;-75
2022/10/29 09:09:41;;;;;;;8.80;5.80;;;21.30;71.60;;;;;;5100815;28;20456;-71
2022/10/29 09:15:28;;;;;;;7.03;6.30;;;20.50;72.50;;;;;;5089349;27;20582;-69
2022/10/29 09:18:14;;;;;;;7.67;6.97;;;20.20;73.60;;;;;;5089380;28;20905;-72
2022/10/29 09:20:52;;;;;;;12.70;7.27;;;20.10;74.10;;;;;;5087689;28;20456;-72
2022/10/29 09:23:36;;;;;;;9.77;8.00;;;20.00;74.80;;;;;;5086105;28;20448;-73
2022/10/29 09:26:06;;;;;;;7.37;6.13;;;19.90;74.70;;;;;;5082416;28;20460;-73
2022/10/29 09:28:44;;;;;;;7.77;6.90;;;19.90;75.20;;;;;;5087722;28;20504;-72
2022/10/29 09:31:25;;;;;;;6.43;5.80;;;20.00;75.00;;;;;;5087549;28;20973;-72
2022/10/29 09:33:55;;;;;;;12.27;7.63;;;20.00;75.10;;;;;;5087707;28;20962;-71
2022/10/29 09:36:30;;;;;;;11.27;7.00;;;20.10;75.00;;;;;;5088673;28;20433;-71
2022/10/29 09:39:01;;;;;;;11.80;7.77;;;20.20;74.70;;;;;;5072458;28;20837;-72
2022/10/29 09:41:32;;;;;;;10.50;6.83;;;20.20;74.60;;;;;;5088556;28;20461;-72
2022/10/29 09:44:11;;;;;;;9.43;6.10;;;20.30;74.20;;;;;;5086574;28;20432;-72
2022/10/29 09:46:49;;;;;;;7.90;6.80;;;20.30;74.30;;;;;;5069103;28;20437;-72
2022/10/29 09:49:33;;;;;;;7.43;6.40;;;20.40;74.40;;;;;;5068332;28;20508;-72
2022/10/29 09:52:04;;;;;;;13.13;7.20;;;20.60;73.80;;;;;;5069419;28;20431;-72
2022/10/29 09:54:33;;;;;;;13.23;9.23;;;20.80;73.90;;;;;;5056269;28;21072;-72
2022/10/29 09:57:03;;;;;;;11.27;7.50;;;21.00;73.50;;;;;;5068171;28;20461;-72
2022/10/29 09:59:35;;;;;;;10.83;6.20;;;21.20;73.20;;;;;;5068541;28;20458;-72
2022/10/29 10:02:24;;;;;;;12.27;7.30;;;21.30;72.70;;;;;;5068223;28;20438;-71
2022/10/29 10:04:56;;;;;;;7.43;6.10;;;21.40;71.60;;;;;;5066085;28;21189;-72
2022/10/29 10:07:24;;;;;;;7.67;6.70;;;21.50;72.40;;;;;;5062304;28;20472;-73
2022/10/29 10:09:55;;;;;;;14.33;7.27;;;21.60;71.50;;;;;;5064142;28;20453;-72
2022/10/29 10:12:25;;;;;;;7.67;5.80;;;21.70;71.00;;;;;;5060894;28;20467;-72
2022/10/29 10:15:16;;;;;;;10.10;6.33;;;21.70;70.80;;;;;;5052398;28;20491;-74
2022/10/29 10:17:59;;;;;;;6.67;5.30;;;21.70;70.80;;;;;;5053186;28;20512;-73
2022/10/29 10:20:37;;;;;;;9.23;5.40;;;21.90;71.10;;;;;;5062228;28;20547;-73
2022/10/29 10:23:23;;;;;;;8.00;5.50;;;22.00;70.70;;;;;;5065118;28;20845;-74
2022/10/29 10:25:52;;;;;;;10.10;4.40;;;22.20;70.30;;;;;;5058384;28;20437;-73
2022/10/29 10:28:21;;;;;;;5.50;4.63;;;22.40;69.90;;;;;;5054464;28;20939;-72
2022/10/29 10:31:06;;;;;;;7.50;4.63;;;22.60;68.90;;;;;;5054789;28;20454;-72
2022/10/29 10:33:43;;;;;;;8.83;5.30;;;22.80;68.60;;;;;;5054549;28;20452;-72
2022/10/29 10:36:11;;;;;;;5.87;4.77;;;22.90;68.80;;;;;;5053825;28;20451;-72
2022/10/29 10:38:43;;;;;;;8.93;5.00;;;23.10;67.80;;;;;;5047657;28;20448;-72
2022/10/29 10:41:14;;;;;;;5.90;4.40;;;23.30;68.10;;;;;;5051516;28;20883;-72
2022/10/29 10:43:43;;;;;;;5.53;4.30;;;23.50;67.30;;;;;;5054530;28;20447;-72
2022/10/29 10:46:16;;;;;;;4.60;3.70;;;23.70;66.00;;;;;;5053681;28;20475;-73
2022/10/29 10:48:56;;;;;;;7.83;4.77;;;23.80;65.70;;;;;;5052437;28;20445;-72
2022/10/29 10:51:27;;;;;;;7.13;4.37;;;23.80;65.20;;;;;;5049875;28;20464;-72
2022/10/29 10:53:56;;;;;;;9.70;4.07;;;23.90;65.20;;;;;;5052708;28;20481;-74
2022/10/29 10:56:24;;;;;;;8.00;4.90;;;24.00;65.50;;;;;;5052558;28;20544;-73
2022/10/29 10:59:04;;;;;;;7.90;4.10;;;24.10;64.70;;;;;;5044696;28;20457;-72
2022/10/29 11:01:37;;;;;;;8.53;4.27;;;24.20;65.70;;;;;;5052401;28;20444;-72
2022/10/29 11:04:14;;;;;;;10.20;3.97;;;24.30;64.50;;;;;;5054748;28;20450;-73
2022/10/29 11:06:48;;;;;;;7.17;4.53;;;24.30;65.40;;;;;;5053497;28;20442;-72
2022/10/29 11:09:24;;;;;;;5.43;4.60;;;24.30;65.50;;;;;;5054107;28;20446;-72
2022/10/29 11:11:59;;;;;;;6.77;4.90;;;24.40;65.50;;;;;;5044711;28;20476;-72
2022/10/29 11:14:33;;;;;;;6.93;4.30;;;24.50;64.10;;;;;;5045604;28;20944;-73
2022/10/29 11:17:03;;;;;;;12.33;4.57;;;24.60;63.60;;;;;;5048898;28;20515;-72
2022/10/29 11:19:38;;;;;;;8.83;4.30;;;24.60;63.80;;;;;;5053796;28;20502;-72
2022/10/29 11:22:17;;;;;;;8.60;3.77;;;24.70;64.70;;;;;;5052324;28;20461;-72
2022/10/29 11:24:51;;;;;;;7.03;4.47;;;24.80;63.60;;;;;;5051944;28;20536;-72
2022/10/29 11:27:28;;;;;;;5.77;3.63;;;24.90;62.70;;;;;;5052312;28;20454;-72
2022/10/29 11:30:03;;;;;;;6.77;4.63;;;24.90;62.70;;;;;;5050279;28;20466;-76
2022/10/29 11:32:41;;;;;;;5.57;4.30;;;24.80;62.80;;;;;;5048567;28;20451;-72
2022/10/29 11:35:13;;;;;;;5.00;3.70;;;24.80;62.90;;;;;;5053221;28;20478;-71
2022/10/29 11:37:48;;;;;;;5.27;3.93;;;24.80;63.40;;;;;;5045852;28;20450;-71
2022/10/29 11:40:21;;;;;;;6.77;3.80;;;24.70;63.00;;;;;;5050315;28;20873;-72
2022/10/29 11:42:50;;;;;;;5.33;3.90;;;24.70;63.70;;;;;;5051496;28;20560;-72
2022/10/29 11:45:22;;;;;;;6.07;3.77;;;24.70;64.30;;;;;;5053348;28;20474;-72
2022/10/29 11:48:06;;;;;;;6.90;4.70;;;24.60;63.90;;;;;;5063188;28;20533;-71
2022/10/29 11:50:44;;;;;;;5.83;4.47;;;24.60;63.30;;;;;;5047054;28;20514;-71
2022/10/29 11:53:25;;;;;;;9.80;4.00;;;24.70;64.00;;;;;;5052340;28;20461;-72
2022/10/29 11:56:03;;;;;;;8.10;3.87;;;24.60;63.80;;;;;;5036708;28;20476;-72
2022/10/29 11:58:36;;;;;;;7.23;4.00;;;24.70;64.10;;;;;;5042251;28;20523;-72
2022/10/29 12:01:15;;;;;;;6.17;4.20;;;24.80;63.90;;;;;;5049298;28;20925;-73
2022/10/29 12:04:08;;;;;;;11.40;4.43;;;24.90;63.60;;;;;;5052771;28;20815;-72
2022/10/29 12:06:46;;;;;;;12.43;4.53;;;24.90;63.30;;;;;;5044363;28;20545;-71
2022/10/29 12:09:41;;;;;;;10.17;3.80;;;25.00;62.80;;;;;;5053251;28;20450;-71
2022/10/29 12:12:16;;;;;;;4.47;4.07;;;25.00;62.80;;;;;;5036676;28;20471;-72
2022/10/29 12:14:49;;;;;;;7.37;4.07;;;25.10;63.60;;;;;;5052330;28;20498;-72
2022/10/29 12:17:23;;;;;;;10.80;4.37;;;25.10;63.00;;;;;;5051399;28;20564;-71
2022/10/29 12:20:00;;;;;;;6.33;4.00;;;25.20;63.10;;;;;;5036707;28;20485;-73
2022/10/29 12:22:38;;;;;;;5.30;3.60;;;25.20;62.80;;;;;;5045096;28;20907;-72
2022/10/29 12:25:21;;;;;;;7.83;4.00;;;25.20;62.20;;;;;;5052216;28;20456;-71
2022/10/29 12:27:59;;;;;;;4.63;3.37;;;25.20;63.10;;;;;;5045439;28;20447;-71
2022/10/29 12:30:32;;;;;;;9.50;4.33;;;25.20;63.10;;;;;;5048544;28;20847;-72
2022/10/29 12:33:06;;;;;;;5.37;4.07;;;25.20;63.40;;;;;;5050888;28;20555;-70
2022/10/29 12:35:42;;;;;;;9.00;4.67;;;25.30;63.10;;;;;;5051312;28;20499;-70
2022/10/29 12:38:29;;;;;;;6.47;3.63;;;25.40;62.90;;;;;;5045062;28;20470;-71
2022/10/29 12:41:03;;;;;;;6.37;3.80;;;25.40;62.70;;;;;;5051616;28;20452;-73
2022/10/29 12:43:35;;;;;;;12.50;4.20;;;25.50;62.50;;;;;;5049901;28;20476;-72
2022/10/29 12:46:13;;;;;;;5.10;4.00;;;25.60;62.70;;;;;;5031929;28;20464;-71
2022/10/29 12:48:56;;;;;;;6.83;3.87;;;25.60;62.30;;;;;;5046318;28;20461;-70
2022/10/29 12:51:33;;;;;;;4.83;3.40;;;25.70;62.10;;;;;;5049854;28;20485;-72
2022/10/29 12:54:15;;;;;;;8.03;4.60;;;25.70;62.00;;;;;;5102429;22;20537;-87
2022/10/29 12:56:44;;;;;;;4.83;4.20;;;25.70;62.30;;;;;;5069926;28;20466;-87
2022/10/29 12:59:36;;;;;;;7.53;4.03;;;25.80;62.10;;;;;;5070071;28;20467;-87
2022/10/29 13:02:26;;;;;;;7.97;3.90;;;25.80;62.20;;;;;;5068093;28;20452;-85
2022/10/29 13:05:15;;;;;;;12.03;4.27;;;25.80;62.20;;;;;;5050724;28;20464;-86
2022/10/29 13:08:26;;;;;;;4.67;3.67;;;25.80;62.30;;;;;;5061524;28;20619;-87
2022/10/29 13:10:56;;;;;;;5.40;3.17;;;25.80;62.20;;;;;;5057841;28;20546;-88
2022/10/29 13:13:42;;;;;;;7.60;3.30;;;25.80;62.30;;;;;;5061206;28;20457;-85
2022/10/29 13:16:16;;;;;;;5.60;3.97;;;25.80;62.50;;;;;;5080418;28;20871;-86